createdAt,value
2023-03-17T00:01:40.241Z,6.30
2023-03-17T00:04:07.365Z,3.07
2023-03-17T00:06:35.099Z,4.07
2023-03-17T00:09:01.966Z,5.25
2023-03-17T00:11:28.455Z,4.07
2023-03-17T00:13:54.946Z,3.60
2023-03-17T00:16:28.326Z,4.03
2023-03-17T00:18:57.545Z,3.53
2023-03-17T00:21:32.655Z,3.03
2023-03-17T00:23:59.658Z,3.42
2023-03-17T00:26:27.619Z,3.50
2023-03-17T00:28:55.106Z,2.53
2023-03-17T00:31:25.111Z,4.95
2023-03-17T00:33:54.039Z,3.00
2023-03-17T00:36:24.214Z,4.32
2023-03-17T00:38:52.510Z,2.92
2023-03-17T00:41:18.930Z,2.57
2023-03-17T00:43:45.799Z,3.08
2023-03-17T00:46:14.827Z,4.93
2023-03-17T00:48:43.421Z,2.55
2023-03-17T00:51:09.902Z,4.68
2023-03-17T00:53:36.622Z,3.60
2023-03-17T00:56:03.912Z,4.60
2023-03-17T00:58:33.697Z,4.00
2023-03-17T01:01:01.050Z,3.03
2023-03-17T01:03:28.625Z,4.63
2023-03-17T01:05:57.011Z,3.43
2023-03-17T01:08:25.586Z,2.60
2023-03-17T01:10:52.432Z,5.07
2023-03-17T01:13:18.878Z,3.08
2023-03-17T01:15:48.654Z,4.40
2023-03-17T01:18:17.020Z,3.23
2023-03-17T01:20:44.285Z,4.30
2023-03-17T01:23:12.139Z,2.75
2023-03-17T01:25:41.427Z,2.30
2023-03-17T01:28:10.668Z,3.67
2023-03-17T01:30:41.581Z,3.50
2023-03-17T01:33:09.996Z,3.25
2023-03-17T01:35:38.323Z,2.88
2023-03-17T01:38:05.974Z,4.10
2023-03-17T01:40:35.774Z,2.88
2023-03-17T01:43:16.061Z,3.57
2023-03-17T01:46:25.070Z,4.13
2023-03-17T01:49:33.572Z,3.17
2023-03-17T01:52:15.771Z,3.65
2023-03-17T01:55:16.094Z,3.95
2023-03-17T01:57:54.184Z,2.73
2023-03-17T02:00:23.998Z,5.00
2023-03-17T02:02:56.102Z,3.00
2023-03-17T02:05:28.477Z,3.03
2023-03-17T02:07:55.894Z,4.25
2023-03-17T02:10:25.308Z,3.33
2023-03-17T02:12:56.657Z,2.78
2023-03-17T02:15:23.882Z,3.92
2023-03-17T02:17:50.709Z,2.65
2023-03-17T02:20:20.035Z,3.42
2023-03-17T02:22:52.575Z,2.07
2023-03-17T02:25:21.351Z,3.78
2023-03-17T02:27:54.745Z,2.85
2023-03-17T02:30:24.237Z,2.25
2023-03-17T02:32:51.125Z,6.70
2023-03-17T02:35:19.539Z,2.30
2023-03-17T02:37:46.908Z,2.35
2023-03-17T02:40:15.184Z,4.10
2023-03-17T02:42:42.009Z,3.35
2023-03-17T02:45:11.454Z,3.47
2023-03-17T02:47:37.910Z,3.30
2023-03-17T02:50:06.848Z,2.38
2023-03-17T02:52:33.477Z,2.67
2023-03-17T02:54:59.874Z,1.92
2023-03-17T02:57:26.553Z,3.13
2023-03-17T02:59:53.121Z,1.83
2023-03-17T03:02:19.600Z,3.05
2023-03-17T03:04:46.257Z,2.92
2023-03-17T03:07:12.675Z,2.55
2023-03-17T03:09:40.256Z,2.08
2023-03-17T03:12:09.896Z,3.20
2023-03-17T03:14:36.643Z,2.15
2023-03-17T03:17:04.404Z,2.38
2023-03-17T03:19:31.121Z,3.05
2023-03-17T03:21:57.620Z,3.83
2023-03-17T03:24:24.146Z,2.13
2023-03-17T03:26:50.744Z,3.10
2023-03-17T03:29:17.634Z,1.92
2023-03-17T03:31:44.138Z,2.97
2023-03-17T03:34:10.915Z,3.08
2023-03-17T03:36:37.434Z,3.40
2023-03-17T03:39:03.820Z,2.50
2023-03-17T03:41:30.305Z,3.63
2023-03-17T03:43:56.901Z,2.90
2023-03-17T03:46:23.503Z,2.53
2023-03-17T03:48:49.922Z,2.20
2023-03-17T03:51:16.744Z,2.67
2023-03-17T03:53:43.163Z,4.60
2023-03-17T03:56:09.897Z,2.22
2023-03-17T03:58:36.452Z,3.90
2023-03-17T04:01:07.367Z,2.10
2023-03-17T04:03:33.769Z,2.13
2023-03-17T04:06:00.237Z,3.15
2023-03-17T04:08:27.199Z,2.63
2023-03-17T04:10:53.560Z,2.80
2023-03-17T04:13:19.992Z,3.33
2023-03-17T04:15:46.452Z,3.83
2023-03-17T04:18:13.053Z,4.95
2023-03-17T04:20:39.517Z,3.50
2023-03-17T04:23:06.012Z,3.13
2023-03-17T04:25:32.619Z,2.13
2023-03-17T04:27:59.070Z,2.50
2023-03-17T04:30:25.487Z,2.30
2023-03-17T04:32:52.035Z,3.58
2023-03-17T04:35:22.604Z,2.72
2023-03-17T04:37:49.735Z,2.47
2023-03-17T04:40:17.954Z,4.07
2023-03-17T04:42:44.385Z,3.22
2023-03-17T04:45:12.603Z,2.85
2023-03-17T04:47:39.456Z,2.45
2023-03-17T04:50:08.103Z,3.43
2023-03-17T04:52:36.431Z,2.70
2023-03-17T04:55:03.767Z,2.13
2023-03-17T04:57:30.287Z,2.08
2023-03-17T04:59:57.619Z,2.47
2023-03-17T05:02:24.129Z,2.03
2023-03-17T05:04:50.611Z,3.45
2023-03-17T05:07:17.233Z,2.22
2023-03-17T05:09:43.717Z,2.33
2023-03-17T05:12:10.521Z,2.30
2023-03-17T05:14:37.420Z,2.53
2023-03-17T05:17:04.004Z,3.72
2023-03-17T05:19:30.619Z,3.28
2023-03-17T05:21:57.275Z,2.72
2023-03-17T05:24:23.827Z,3.80
2023-03-17T05:26:50.405Z,2.27
2023-03-17T05:29:17.002Z,3.28
2023-03-17T05:31:47.329Z,2.88
2023-03-17T05:34:13.912Z,2.72
2023-03-17T05:36:40.507Z,3.47
2023-03-17T05:39:07.387Z,3.20
2023-03-17T05:41:33.829Z,5.03
2023-03-17T05:44:00.395Z,1.90
2023-03-17T05:46:27.246Z,2.38
2023-03-17T05:48:53.710Z,4.32
2023-03-17T05:51:20.509Z,3.10
2023-03-17T05:53:46.943Z,2.72
2023-03-17T05:56:13.426Z,2.05
2023-03-17T05:58:39.880Z,2.78
2023-03-17T06:01:06.380Z,2.00
2023-03-17T06:03:32.836Z,3.50
2023-03-17T06:05:59.331Z,2.92
2023-03-17T06:08:25.769Z,5.97
2023-03-17T06:10:52.532Z,2.97
2023-03-17T06:13:18.976Z,2.80
2023-03-17T06:15:48.411Z,2.87
2023-03-17T06:18:14.827Z,2.78
2023-03-17T06:20:41.469Z,4.43
2023-03-17T06:23:08.001Z,3.67
2023-03-17T06:25:35.374Z,2.90
2023-03-17T06:28:03.688Z,2.23
2023-03-17T06:30:34.169Z,3.55
2023-03-17T06:33:01.433Z,4.57
2023-03-17T06:35:28.624Z,2.47
2023-03-17T06:37:55.308Z,3.65
2023-03-17T06:40:22.035Z,2.80
2023-03-17T06:42:48.590Z,6.53
2023-03-17T06:45:15.967Z,2.50
2023-03-17T06:47:42.590Z,2.63
2023-03-17T06:50:10.170Z,5.32
2023-03-17T06:52:37.807Z,3.03
2023-03-17T06:55:05.134Z,3.85
2023-03-17T06:57:31.931Z,2.75
2023-03-17T06:59:58.462Z,3.25
2023-03-17T07:02:25.076Z,2.03
2023-03-17T07:04:52.071Z,4.97
2023-03-17T07:07:20.363Z,2.50
2023-03-17T07:09:47.773Z,4.90
2023-03-17T07:12:14.548Z,3.38
2023-03-17T07:14:41.745Z,5.32
2023-03-17T07:17:11.975Z,2.53
2023-03-17T07:19:39.011Z,2.78
2023-03-17T07:22:05.495Z,2.53
2023-03-17T07:24:32.253Z,2.38
2023-03-17T07:26:58.681Z,2.28
2023-03-17T07:29:25.146Z,5.30
2023-03-17T07:31:51.670Z,4.05
2023-03-17T07:34:18.281Z,4.00
2023-03-17T07:36:44.834Z,5.45
2023-03-17T07:39:12.086Z,3.65
2023-03-17T07:41:38.850Z,4.37
2023-03-17T07:44:05.328Z,4.35
2023-03-17T07:46:31.865Z,3.28
2023-03-17T07:48:58.341Z,3.35
2023-03-17T07:51:27.681Z,2.55
2023-03-17T07:54:03.106Z,4.53
2023-03-17T07:56:31.033Z,4.60
2023-03-17T07:58:58.868Z,2.15
2023-03-17T08:01:28.524Z,2.72
2023-03-17T08:03:56.458Z,4.40
2023-03-17T08:06:25.412Z,3.17
2023-03-17T08:08:53.300Z,3.35
2023-03-17T08:11:20.277Z,6.22
2023-03-17T08:13:47.740Z,3.22
2023-03-17T08:16:14.314Z,3.92
2023-03-17T08:18:41.111Z,6.70
2023-03-17T08:21:07.832Z,3.67
2023-03-17T08:23:34.366Z,3.28
2023-03-17T08:26:03.311Z,4.45
2023-03-17T08:28:30.437Z,3.97
2023-03-17T08:31:10.389Z,2.80
2023-03-17T08:33:43.258Z,3.58
2023-03-17T08:36:11.275Z,4.20
2023-03-17T08:38:39.380Z,3.75
2023-03-17T08:41:08.750Z,3.38
2023-03-17T08:43:36.808Z,3.03
2023-03-17T08:46:11.845Z,2.97
2023-03-17T08:48:38.406Z,4.80
2023-03-17T08:51:06.969Z,3.45
2023-03-17T08:53:34.892Z,5.00
2023-03-17T08:56:02.284Z,4.53
2023-03-17T08:58:29.322Z,5.00
2023-03-17T09:01:00.521Z,3.33
2023-03-17T09:03:27.454Z,2.83
2023-03-17T09:05:54.622Z,5.15
2023-03-17T09:08:22.566Z,6.73
2023-03-17T09:10:49.754Z,6.28
2023-03-17T09:13:16.233Z,3.80
2023-03-17T09:15:42.988Z,3.83
2023-03-17T09:18:10.517Z,3.47
2023-03-17T09:20:37.290Z,3.77
2023-03-17T09:23:08.551Z,6.75
2023-03-17T09:25:36.448Z,4.25
2023-03-17T09:28:03.639Z,3.92
2023-03-17T09:30:31.098Z,6.32
2023-03-17T09:32:58.148Z,4.23
2023-03-17T09:35:25.654Z,3.95
2023-03-17T09:37:52.029Z,4.13
2023-03-17T09:40:22.445Z,3.38
2023-03-17T09:43:10.263Z,3.30
2023-03-17T09:45:40.590Z,4.63
2023-03-17T09:48:29.303Z,3.95
2023-03-17T09:51:08.997Z,4.68
2023-03-17T09:53:46.206Z,3.45
2023-03-17T09:56:16.161Z,3.17
2023-03-17T09:58:51.287Z,4.10
2023-03-17T10:01:18.483Z,4.15
2023-03-17T10:03:45.107Z,4.55
2023-03-17T10:06:20.657Z,5.03
2023-03-17T10:08:54.841Z,4.82
2023-03-17T10:11:53.707Z,5.40
2023-03-17T10:14:29.607Z,6.18
2023-03-17T10:17:17.521Z,5.13
2023-03-17T10:19:52.830Z,5.47
2023-03-17T10:22:39.944Z,5.03
2023-03-17T10:25:31.807Z,5.23
2023-03-17T10:28:28.228Z,6.15
2023-03-17T10:30:57.518Z,4.55
2023-03-17T10:33:24.031Z,5.93
2023-03-17T10:35:50.512Z,4.25
2023-03-17T10:38:24.196Z,5.47
2023-03-17T10:40:58.757Z,6.13
2023-03-17T10:43:30.690Z,4.82
2023-03-17T10:46:05.636Z,4.57
2023-03-17T10:48:37.034Z,7.40
2023-03-17T10:51:22.341Z,4.57
2023-03-17T10:53:52.941Z,5.57
2023-03-17T10:56:26.302Z,4.63
2023-03-17T10:58:55.448Z,3.92
2023-03-17T11:01:36.388Z,5.53
2023-03-17T11:04:06.403Z,4.80
2023-03-17T11:06:38.127Z,4.57
2023-03-17T11:09:19.190Z,6.53
2023-03-17T11:11:50.433Z,5.20
2023-03-17T11:14:18.957Z,4.20
2023-03-17T11:16:55.965Z,4.90
2023-03-17T11:19:44.124Z,4.25
2023-03-17T11:22:15.627Z,7.07
2023-03-17T11:25:09.458Z,5.05
2023-03-17T11:27:45.159Z,4.55
2023-03-17T11:30:39.582Z,4.40
2023-03-17T11:33:16.587Z,3.75
2023-03-17T11:36:01.568Z,5.68
2023-03-17T11:38:37.560Z,6.72
2023-03-17T11:41:04.776Z,4.20
2023-03-17T11:43:55.897Z,4.17
2023-03-17T11:46:42.672Z,6.63
2023-03-17T11:49:27.511Z,5.40
2023-03-17T11:52:03.188Z,4.78
2023-03-17T11:54:35.743Z,4.35
2023-03-17T11:57:13.385Z,3.73
2023-03-17T11:59:57.062Z,5.57
2023-03-17T12:02:36.722Z,5.53
2023-03-17T12:05:10.023Z,3.05
2023-03-17T12:07:58.435Z,5.63
2023-03-17T12:10:33.978Z,3.60
2023-03-17T12:13:21.182Z,4.60
2023-03-17T12:15:52.881Z,5.60
2023-03-17T12:18:37.437Z,6.68
2023-03-17T12:21:14.514Z,5.05
2023-03-17T12:23:57.378Z,6.30
2023-03-17T12:26:38.761Z,5.30
2023-03-17T12:29:45.617Z,4.72
2023-03-17T12:32:22.629Z,6.68
2023-03-17T12:34:57.394Z,4.95
2023-03-17T12:37:27.603Z,4.97
2023-03-17T12:40:08.627Z,5.15
2023-03-17T12:43:03.398Z,7.50
2023-03-17T12:45:39.154Z,6.22
2023-03-17T12:48:41.402Z,6.93
2023-03-17T12:51:45.851Z,8.93
2023-03-17T12:54:39.539Z,4.07
2023-03-17T12:57:20.338Z,4.97
2023-03-17T12:59:49.585Z,6.13
2023-03-17T13:02:28.306Z,4.63
2023-03-17T13:05:04.487Z,4.43
2023-03-17T13:07:36.732Z,5.07
2023-03-17T13:10:03.072Z,5.80
2023-03-17T13:12:42.088Z,6.68
2023-03-17T13:15:49.419Z,5.47
2023-03-17T13:18:15.986Z,4.90
2023-03-17T13:20:44.605Z,5.68
2023-03-17T13:23:11.122Z,5.63
2023-03-17T13:25:45.556Z,4.70
2023-03-17T13:28:12.077Z,6.00
2023-03-17T13:30:38.720Z,7.13
2023-03-17T13:33:09.533Z,7.20
2023-03-17T13:35:59.178Z,6.13
2023-03-17T13:38:43.489Z,4.45
2023-03-17T13:41:18.713Z,5.47
2023-03-17T13:44:12.800Z,8.27
2023-03-17T13:46:39.912Z,6.45
2023-03-17T13:49:18.383Z,6.28
2023-03-17T13:52:12.373Z,5.18
2023-03-17T13:54:48.320Z,6.35
2023-03-17T13:57:34.566Z,4.90
2023-03-17T14:00:16.504Z,6.28
2023-03-17T14:02:44.560Z,6.50
2023-03-17T14:05:24.263Z,4.93
2023-03-17T14:08:04.002Z,6.38
2023-03-17T14:10:34.084Z,6.57
2023-03-17T14:13:22.970Z,7.13
2023-03-17T14:16:14.370Z,6.55
2023-03-17T14:18:49.574Z,5.85
2023-03-17T14:21:22.282Z,6.20
2023-03-17T14:23:56.722Z,7.43
2023-03-17T14:26:25.396Z,5.13
2023-03-17T14:28:52.173Z,4.95
2023-03-17T14:31:24.951Z,4.85
2023-03-17T14:34:01.443Z,6.15
2023-03-17T14:36:32.648Z,7.40
2023-03-17T14:38:59.089Z,7.30
2023-03-17T14:41:27.370Z,6.53
2023-03-17T14:43:58.428Z,7.15
2023-03-17T14:46:27.760Z,6.40
2023-03-17T14:49:01.045Z,6.30
2023-03-17T14:51:36.197Z,3.95
2023-03-17T14:54:24.608Z,6.65
2023-03-17T14:56:59.959Z,5.93
2023-03-17T14:59:37.692Z,6.00
2023-03-17T15:02:28.937Z,8.17
2023-03-17T15:05:21.788Z,6.07
2023-03-17T15:07:48.264Z,5.75
2023-03-17T15:10:17.371Z,7.15
2023-03-17T15:12:46.654Z,5.15
2023-03-17T15:15:28.709Z,6.17
2023-03-17T15:17:57.995Z,6.78
2023-03-17T15:20:25.183Z,5.40
2023-03-17T15:23:00.200Z,7.03
2023-03-17T15:25:32.919Z,5.68
2023-03-17T15:27:59.708Z,5.83
2023-03-17T15:30:29.511Z,6.63
2023-03-17T15:33:01.578Z,7.38
2023-03-17T15:35:28.873Z,7.70
2023-03-17T15:37:55.935Z,6.72
2023-03-17T15:40:22.434Z,8.50
2023-03-17T15:42:49.254Z,6.22
2023-03-17T15:45:17.251Z,5.15
2023-03-17T15:47:46.912Z,5.18
2023-03-17T15:50:17.870Z,7.45
2023-03-17T15:52:45.581Z,7.30
2023-03-17T15:55:19.890Z,5.78
2023-03-17T15:57:54.861Z,8.18
2023-03-17T16:00:23.927Z,6.32
2023-03-17T16:02:53.943Z,7.13
2023-03-17T16:05:26.500Z,5.90
2023-03-17T16:07:54.176Z,5.85
2023-03-17T16:10:26.129Z,4.32
2023-03-17T16:12:52.983Z,5.68
2023-03-17T16:15:23.714Z,5.53
2023-03-17T16:17:54.686Z,5.23
2023-03-17T16:20:27.222Z,6.00
2023-03-17T16:22:58.471Z,5.70
2023-03-17T16:25:29.297Z,5.95
2023-03-17T16:27:58.525Z,7.15
2023-03-17T16:30:28.401Z,6.17
2023-03-17T16:32:59.581Z,8.02
2023-03-17T16:35:26.389Z,8.07
2023-03-17T16:37:54.304Z,7.85
2023-03-17T16:40:33.472Z,7.45
2023-03-17T16:43:00.364Z,7.67
2023-03-17T16:45:29.198Z,7.65
2023-03-17T16:47:57.026Z,9.30
2023-03-17T16:50:26.041Z,6.95
2023-03-17T16:52:52.754Z,6.80
2023-03-17T16:55:20.779Z,8.57
2023-03-17T16:57:50.478Z,9.18
2023-03-17T17:00:23.243Z,7.03
2023-03-17T17:02:50.025Z,7.53
2023-03-17T17:05:19.713Z,8.73
2023-03-17T17:07:47.851Z,8.33
2023-03-17T17:10:16.673Z,9.25
2023-03-17T17:12:43.674Z,5.88
2023-03-17T17:15:12.550Z,6.97
2023-03-17T17:17:42.033Z,6.90
2023-03-17T17:20:17.478Z,8.50
2023-03-17T17:22:44.321Z,7.82
2023-03-17T17:25:12.049Z,7.82
2023-03-17T17:27:43.730Z,7.50
2023-03-17T17:30:14.108Z,6.25
2023-03-17T17:32:40.824Z,7.83
2023-03-17T17:35:07.910Z,6.18
2023-03-17T17:37:35.323Z,5.03
2023-03-17T17:40:01.955Z,6.47
2023-03-17T17:42:28.334Z,9.30
2023-03-17T17:44:54.802Z,9.67
2023-03-17T17:47:21.264Z,7.22
2023-03-17T17:49:47.698Z,6.75
2023-03-17T17:52:14.338Z,8.82
2023-03-17T17:54:40.800Z,12.35
2023-03-17T17:57:07.281Z,8.13
2023-03-17T17:59:33.677Z,6.03
2023-03-17T18:02:01.113Z,7.05
2023-03-17T18:04:27.606Z,5.97
2023-03-17T18:06:54.075Z,7.13
2023-03-17T18:09:21.590Z,7.17
2023-03-17T18:11:48.378Z,6.80
2023-03-17T18:14:14.883Z,5.85
2023-03-17T18:16:41.603Z,5.25
2023-03-17T18:19:09.451Z,9.90
2023-03-17T18:21:36.613Z,9.97
2023-03-17T18:24:04.720Z,7.88
2023-03-17T18:26:31.574Z,9.07
2023-03-17T18:28:57.954Z,8.48
2023-03-17T18:31:35.140Z,9.23
2023-03-17T18:34:08.953Z,10.20
2023-03-17T18:36:35.716Z,11.60
2023-03-17T18:39:02.150Z,9.93
2023-03-17T18:41:28.619Z,15.77
2023-03-17T18:43:55.051Z,11.50
2023-03-17T18:46:22.109Z,10.67
2023-03-17T18:48:48.551Z,10.90
2023-03-17T18:51:15.153Z,10.77
2023-03-17T18:53:41.558Z,12.18
2023-03-17T18:56:08.568Z,10.13
2023-03-17T18:58:36.125Z,10.93
2023-03-17T19:01:03.020Z,11.57
2023-03-17T19:03:29.662Z,11.13
2023-03-17T19:05:56.237Z,13.25
2023-03-17T19:08:22.742Z,15.50
2023-03-17T19:10:49.554Z,14.60
2023-03-17T19:13:16.379Z,12.27
2023-03-17T19:15:42.909Z,17.98
2023-03-17T19:18:09.710Z,17.42
2023-03-17T19:20:36.564Z,14.60
2023-03-17T19:23:07.165Z,11.97
2023-03-17T19:25:34.064Z,16.08
2023-03-17T19:28:00.505Z,13.57
2023-03-17T19:30:27.149Z,13.45
2023-03-17T19:32:53.656Z,12.32
2023-03-17T19:35:20.885Z,15.80
2023-03-17T19:37:47.462Z,8.88
2023-03-17T19:40:14.702Z,8.15
2023-03-17T19:42:41.411Z,10.02
2023-03-17T19:45:08.408Z,8.90
2023-03-17T19:47:34.836Z,8.53
2023-03-17T19:50:01.214Z,11.40
2023-03-17T19:52:27.715Z,6.47
2023-03-17T19:54:54.157Z,7.70
2023-03-17T19:57:20.842Z,7.70
2023-03-17T19:59:47.461Z,6.23
2023-03-17T20:02:15.962Z,7.93
2023-03-17T20:04:43.024Z,6.65
2023-03-17T20:07:10.215Z,9.30
2023-03-17T20:09:37.882Z,7.47
2023-03-17T20:12:05.091Z,7.43
2023-03-17T20:14:31.930Z,8.60
2023-03-17T20:16:58.428Z,8.25
2023-03-17T20:19:25.184Z,6.53
2023-03-17T20:21:52.410Z,6.18
2023-03-17T20:24:19.063Z,8.33
2023-03-17T20:26:45.719Z,7.38
2023-03-17T20:29:16.111Z,8.13
2023-03-17T20:31:42.671Z,9.50
2023-03-17T20:34:10.007Z,7.85
2023-03-17T20:36:37.331Z,8.63
2023-03-17T20:39:04.538Z,8.52
2023-03-17T20:41:31.259Z,8.00
2023-03-17T20:43:57.682Z,7.40
2023-03-17T20:46:25.822Z,8.05
2023-03-17T20:48:58.382Z,11.73
2023-03-17T20:51:26.281Z,9.82
2023-03-17T20:53:53.781Z,9.52
2023-03-17T20:56:22.327Z,12.05
2023-03-17T20:58:49.669Z,9.60
2023-03-17T21:01:20.449Z,6.87
2023-03-17T21:03:48.054Z,6.18
2023-03-17T21:06:14.789Z,9.18
2023-03-17T21:08:42.349Z,7.35
2023-03-17T21:11:14.123Z,7.45
2023-03-17T21:13:40.799Z,10.40
2023-03-17T21:16:07.357Z,8.38
2023-03-17T21:18:33.801Z,10.02
2023-03-17T21:21:00.392Z,11.98
2023-03-17T21:23:27.075Z,7.90
2023-03-17T21:25:55.845Z,10.17
2023-03-17T21:28:23.162Z,7.43
2023-03-17T21:30:49.902Z,10.73
2023-03-17T21:33:16.328Z,12.50
2023-03-17T21:35:43.076Z,8.65
2023-03-17T21:38:09.843Z,9.80
2023-03-17T21:40:36.270Z,9.40
2023-03-17T21:43:02.867Z,8.55
2023-03-17T21:45:29.482Z,10.70
2023-03-17T21:47:56.427Z,8.95
2023-03-17T21:50:23.033Z,7.43
2023-03-17T21:52:49.515Z,10.55
2023-03-17T21:55:16.000Z,9.27
2023-03-17T21:57:42.878Z,6.75
2023-03-17T22:00:10.634Z,8.50
2023-03-17T22:02:37.534Z,6.80
2023-03-17T22:05:05.515Z,8.32
2023-03-17T22:07:32.939Z,9.88
2023-03-17T22:10:00.881Z,10.20
2023-03-17T22:12:27.512Z,6.65
2023-03-17T22:14:57.495Z,7.37
2023-03-17T22:17:24.203Z,8.95
2023-03-17T22:19:52.365Z,8.45
2023-03-17T22:22:23.234Z,7.63
2023-03-17T22:24:49.816Z,8.18
2023-03-17T22:27:17.671Z,11.50
2023-03-17T22:29:44.746Z,11.25
2023-03-17T22:32:11.242Z,10.57
2023-03-17T22:34:38.036Z,9.00
2023-03-17T22:37:04.919Z,9.95
2023-03-17T22:39:31.563Z,8.13
2023-03-17T22:41:57.980Z,7.95
2023-03-17T22:44:24.332Z,8.55
2023-03-17T22:46:50.709Z,11.50
2023-03-17T22:49:17.319Z,9.95
2023-03-17T22:51:43.759Z,11.67
2023-03-17T22:54:11.608Z,6.93
2023-03-17T22:56:38.242Z,10.93
2023-03-17T22:59:04.717Z,8.15
2023-03-17T23:01:31.717Z,7.70
2023-03-17T23:03:58.280Z,13.13
2023-03-17T23:06:25.646Z,8.63
2023-03-17T23:08:52.301Z,7.85
2023-03-17T23:11:23.004Z,7.82
2023-03-17T23:13:50.607Z,10.25
2023-03-17T23:16:17.276Z,9.90
2023-03-17T23:18:46.839Z,10.95
2023-03-17T23:21:35.754Z,9.07
2023-03-17T23:24:04.585Z,8.85
2023-03-17T23:26:31.949Z,10.43
2023-03-17T23:28:58.453Z,11.17
2023-03-17T23:31:25.493Z,11.57
2023-03-17T23:33:52.576Z,11.00
2023-03-17T23:36:19.587Z,11.05
2023-03-17T23:38:46.300Z,9.30
2023-03-17T23:41:14.326Z,11.10
2023-03-17T23:43:41.447Z,11.13
2023-03-17T23:46:08.361Z,9.05
2023-03-17T23:48:34.905Z,8.57
2023-03-17T23:51:03.084Z,11.30
2023-03-17T23:53:29.528Z,8.27
2023-03-17T23:55:55.981Z,15.10
2023-03-17T23:58:22.914Z,10.75
